createdAt,value
2018-10-07T00:01:32.902Z,15
2018-10-07T00:11:33.183Z,16
2018-10-07T00:21:27.740Z,15
2018-10-07T00:31:27.436Z,15
2018-10-07T00:41:28.023Z,15
2018-10-07T00:51:28.398Z,15
2018-10-07T01:01:29.463Z,15
2018-10-07T01:11:27.885Z,15
2018-10-07T01:21:28.055Z,15
2018-10-07T01:31:28.181Z,15
2018-10-07T01:41:28.167Z,15
2018-10-07T01:51:30.003Z,15
2018-10-07T02:01:31.308Z,15
2018-10-07T02:11:28.829Z,15
2018-10-07T02:21:28.308Z,15
2018-10-07T02:31:27.197Z,14
2018-10-07T02:41:27.993Z,15
2018-10-07T02:51:28.105Z,14
2018-10-07T03:01:28.788Z,15
2018-10-07T03:11:27.480Z,14
2018-10-07T03:21:28.125Z,14
2018-10-07T03:31:28.607Z,15
2018-10-07T03:41:27.956Z,15
2018-10-07T03:51:28.239Z,14
2018-10-07T04:01:30.105Z,15
2018-10-07T04:11:28.046Z,14
2018-10-07T04:21:28.173Z,14
2018-10-07T04:31:29.578Z,15
2018-10-07T04:41:27.366Z,14
2018-10-07T04:51:27.964Z,14
2018-10-07T05:01:28.431Z,15
2018-10-07T05:11:28.078Z,15
2018-10-07T05:21:28.880Z,15
2018-10-07T05:31:27.564Z,15
2018-10-07T05:41:27.912Z,15
2018-10-07T05:51:28.357Z,15
2018-10-07T06:01:27.198Z,14
2018-10-07T06:11:28.055Z,15
2018-10-07T06:21:28.768Z,15
2018-10-07T06:31:29.095Z,15
2018-10-07T06:41:28.773Z,15
2018-10-07T06:51:27.881Z,15
2018-10-07T07:01:28.673Z,16
2018-10-07T07:11:28.082Z,16
2018-10-07T07:21:27.276Z,16
2018-10-07T07:31:26.442Z,16
2018-10-07T07:41:29.101Z,16
2018-10-07T07:51:29.037Z,16
2018-10-07T08:01:27.958Z,16
2018-10-07T08:11:28.797Z,17
2018-10-07T08:21:27.328Z,17
2018-10-07T08:41:27.125Z,17
2018-10-07T08:51:28.876Z,17
2018-10-07T09:01:28.437Z,17
2018-10-07T09:12:21.689Z,17
2018-10-07T09:21:26.675Z,18
2018-10-07T09:31:28.017Z,18
2018-10-07T09:41:28.486Z,18
2018-10-07T09:51:27.537Z,18
2018-10-07T10:01:28.747Z,18
2018-10-07T10:11:28.331Z,18
2018-10-07T10:21:27.501Z,19
2018-10-07T10:31:27.507Z,19
2018-10-07T10:41:26.843Z,20
2018-10-07T10:51:29.295Z,20
2018-10-07T11:01:27.874Z,20
2018-10-07T11:11:27.261Z,20
2018-10-07T11:21:26.831Z,20
2018-10-07T11:31:27.742Z,20
2018-10-07T11:41:27.063Z,20
2018-10-07T11:51:27.536Z,20
2018-10-07T12:01:26.850Z,21
2018-10-07T12:11:27.949Z,20
2018-10-07T12:21:29.325Z,20
2018-10-07T12:31:26.558Z,20
2018-10-07T12:41:26.533Z,20
2018-10-07T12:51:26.502Z,21
2018-10-07T13:01:26.934Z,21
2018-10-07T13:11:27.022Z,21
2018-10-07T13:21:27.208Z,20
2018-10-07T13:31:32.450Z,21
2018-10-07T13:41:26.946Z,21
2018-10-07T13:56:20.388Z,21
2018-10-07T14:01:26.805Z,20
2018-10-07T14:11:26.833Z,20
2018-10-07T14:21:27.257Z,20
2018-10-07T14:31:28.148Z,21
2018-10-07T14:41:27.621Z,21
2018-10-07T14:51:26.800Z,21
2018-10-07T15:01:26.927Z,20
2018-10-07T15:11:27.761Z,20
2018-10-07T15:21:29.351Z,20
2018-10-07T15:31:26.445Z,21
2018-10-07T15:41:27.873Z,20
2018-10-07T15:51:27.832Z,20
2018-10-07T16:01:27.239Z,20
2018-10-07T16:11:27.332Z,21
2018-10-07T16:21:27.461Z,20
2018-10-07T16:31:26.627Z,20
2018-10-07T16:41:28.855Z,20
2018-10-07T16:51:27.521Z,20
2018-10-07T17:01:28.178Z,20
2018-10-07T17:11:27.462Z,20
2018-10-07T17:21:30.661Z,20
2018-10-07T17:31:27.523Z,20
2018-10-07T17:41:32.305Z,19
2018-10-07T17:51:34.192Z,20
2018-10-07T18:01:29.613Z,19
2018-10-07T18:11:29.371Z,19
2018-10-07T18:21:29.525Z,20
2018-10-07T18:31:27.307Z,19
2018-10-07T18:41:26.726Z,19
2018-10-07T18:51:27.737Z,19
2018-10-07T19:01:27.146Z,19
2018-10-07T19:11:27.269Z,19
2018-10-07T19:21:34.588Z,19
2018-10-07T19:31:34.006Z,19
2018-10-07T19:41:34.480Z,19
2018-10-07T19:51:34.248Z,19
2018-10-07T20:01:32.842Z,19
2018-10-07T20:11:32.992Z,18
2018-10-07T20:21:29.310Z,18
2018-10-07T20:31:28.766Z,18
2018-10-07T20:41:27.555Z,18
2018-10-07T20:51:28.002Z,18
2018-10-07T21:01:28.389Z,18
2018-10-07T21:11:28.561Z,18
2018-10-07T21:21:28.339Z,17
2018-10-07T21:31:26.284Z,17
2018-10-07T21:41:27.419Z,17
2018-10-07T21:51:27.490Z,17
2018-10-07T22:01:27.854Z,17
2018-10-07T22:11:28.802Z,17
2018-10-07T22:21:28.863Z,17
2018-10-07T22:31:28.309Z,17
2018-10-07T22:41:34.789Z,17
2018-10-07T22:51:29.571Z,17
2018-10-07T23:01:29.540Z,17
2018-10-07T23:11:27.609Z,16
2018-10-07T23:21:29.124Z,16
2018-10-07T23:31:28.047Z,16
2018-10-07T23:41:29.006Z,16
2018-10-07T23:51:29.388Z,16
